sensor_id;sensor_type;location;lat;lon;timestamp;P1;durP1;ratioP1;P2;durP2;ratioP2
11052;SDS011;55230;42.602;23.470;2022-09-27T00:02:03;5.83;;;3.10;;
11052;SDS011;55230;42.602;23.470;2022-09-27T00:04:31;3.87;;;3.10;;
11052;SDS011;55230;42.602;23.470;2022-09-27T00:06:59;3.23;;;2.90;;
11052;SDS011;55230;42.602;23.470;2022-09-27T00:09:26;3.30;;;3.00;;
11052;SDS011;55230;42.602;23.470;2022-09-27T00:11:53;3.47;;;3.13;;
11052;SDS011;55230;42.602;23.470;2022-09-27T00:14:19;3.77;;;2.80;;
11052;SDS011;55230;42.602;23.470;2022-09-27T00:16:46;4.53;;;2.70;;
11052;SDS011;55230;42.602;23.470;2022-09-27T00:19:14;3.13;;;2.87;;
11052;SDS011;55230;42.602;23.470;2022-09-27T00:21:44;3.03;;;2.50;;
11052;SDS011;55230;42.602;23.470;2022-09-27T00:24:11;4.67;;;2.50;;
11052;SDS011;55230;42.602;23.470;2022-09-27T00:26:39;3.17;;;2.40;;
11052;SDS011;55230;42.602;23.470;2022-09-27T00:29:06;4.23;;;2.43;;
11052;SDS011;55230;42.602;23.470;2022-09-27T00:31:33;2.00;;;1.90;;
11052;SDS011;55230;42.602;23.470;2022-09-27T00:34:00;2.10;;;1.90;;
11052;SDS011;55230;42.602;23.470;2022-09-27T00:36:30;2.27;;;2.17;;
11052;SDS011;55230;42.602;23.470;2022-09-27T00:38:59;3.73;;;3.40;;
11052;SDS011;55230;42.602;23.470;2022-09-27T00:41:27;6.43;;;5.83;;
11052;SDS011;55230;42.602;23.470;2022-09-27T00:43:56;7.63;;;6.70;;
11052;SDS011;55230;42.602;23.470;2022-09-27T00:46:25;7.60;;;6.80;;
11052;SDS011;55230;42.602;23.470;2022-09-27T00:49:01;9.50;;;6.90;;
11052;SDS011;55230;42.602;23.470;2022-09-27T00:51:31;8.07;;;7.27;;
11052;SDS011;55230;42.602;23.470;2022-09-27T00:54:01;8.37;;;6.73;;
11052;SDS011;55230;42.602;23.470;2022-09-27T00:56:29;9.17;;;7.83;;
11052;SDS011;55230;42.602;23.470;2022-09-27T00:58:58;9.97;;;8.03;;
11052;SDS011;55230;42.602;23.470;2022-09-27T01:01:29;13.10;;;8.83;;
11052;SDS011;55230;42.602;23.470;2022-09-27T01:03:58;12.10;;;9.00;;
11052;SDS011;55230;42.602;23.470;2022-09-27T01:06:29;11.43;;;9.73;;
11052;SDS011;55230;42.602;23.470;2022-09-27T01:08:56;11.90;;;10.37;;
11052;SDS011;55230;42.602;23.470;2022-09-27T01:11:27;12.93;;;10.17;;
11052;SDS011;55230;42.602;23.470;2022-09-27T01:14:09;10.97;;;9.40;;
11052;SDS011;55230;42.602;23.470;2022-09-27T01:16:42;33.37;;;21.17;;
11052;SDS011;55230;42.602;23.470;2022-09-27T01:19:21;16.10;;;12.60;;
11052;SDS011;55230;42.602;23.470;2022-09-27T01:22:06;13.63;;;10.80;;
11052;SDS011;55230;42.602;23.470;2022-09-27T01:27:35;12.73;;;10.33;;
11052;SDS011;55230;42.602;23.470;2022-09-27T01:30:22;10.37;;;9.23;;
11052;SDS011;55230;42.602;23.470;2022-09-27T01:32:57;10.97;;;8.87;;
11052;SDS011;55230;42.602;23.470;2022-09-27T01:35:34;10.23;;;8.87;;
11052;SDS011;55230;42.602;23.470;2022-09-27T01:38:10;9.50;;;7.87;;
11052;SDS011;55230;42.602;23.470;2022-09-27T01:40:43;8.60;;;7.47;;
11052;SDS011;55230;42.602;23.470;2022-09-27T01:43:20;9.77;;;7.80;;
11052;SDS011;55230;42.602;23.470;2022-09-27T01:45:51;11.33;;;7.30;;
11052;SDS011;55230;42.602;23.470;2022-09-27T01:48:23;6.93;;;6.00;;
11052;SDS011;55230;42.602;23.470;2022-09-27T01:50:56;6.97;;;6.10;;
11052;SDS011;55230;42.602;23.470;2022-09-27T01:53:30;6.27;;;5.63;;
11052;SDS011;55230;42.602;23.470;2022-09-27T01:56:02;7.20;;;6.13;;
11052;SDS011;55230;42.602;23.470;2022-09-27T01:58:32;6.87;;;6.13;;
11052;SDS011;55230;42.602;23.470;2022-09-27T02:01:07;7.40;;;6.63;;
11052;SDS011;55230;42.602;23.470;2022-09-27T02:03:35;6.70;;;6.10;;
11052;SDS011;55230;42.602;23.470;2022-09-27T02:06:06;7.00;;;6.40;;
11052;SDS011;55230;42.602;23.470;2022-09-27T02:08:38;10.17;;;7.80;;
11052;SDS011;55230;42.602;23.470;2022-09-27T02:11:09;10.47;;;9.10;;
11052;SDS011;55230;42.602;23.470;2022-09-27T02:13:38;10.07;;;8.40;;
11052;SDS011;55230;42.602;23.470;2022-09-27T02:16:15;10.37;;;8.20;;
11052;SDS011;55230;42.602;23.470;2022-09-27T02:18:50;9.10;;;7.80;;
11052;SDS011;55230;42.602;23.470;2022-09-27T02:21:28;9.97;;;7.63;;
11052;SDS011;55230;42.602;23.470;2022-09-27T02:24:02;8.07;;;6.83;;
11052;SDS011;55230;42.602;23.470;2022-09-27T02:26:32;6.83;;;6.17;;
11052;SDS011;55230;42.602;23.470;2022-09-27T02:29:04;6.43;;;5.83;;
11052;SDS011;55230;42.602;23.470;2022-09-27T02:31:36;6.10;;;5.53;;
11052;SDS011;55230;42.602;23.470;2022-09-27T02:34:03;6.33;;;5.70;;
11052;SDS011;55230;42.602;23.470;2022-09-27T02:36:34;9.07;;;8.17;;
11052;SDS011;55230;42.602;23.470;2022-09-27T02:39:01;7.57;;;6.77;;
11052;SDS011;55230;42.602;23.470;2022-09-27T02:41:28;6.43;;;5.83;;
11052;SDS011;55230;42.602;23.470;2022-09-27T02:43:57;8.37;;;7.60;;
11052;SDS011;55230;42.602;23.470;2022-09-27T02:46:37;8.37;;;7.57;;
11052;SDS011;55230;42.602;23.470;2022-09-27T02:49:19;10.53;;;8.57;;
11052;SDS011;55230;42.602;23.470;2022-09-27T02:52:11;9.30;;;8.30;;
11052;SDS011;55230;42.602;23.470;2022-09-27T02:54:46;8.63;;;7.80;;
11052;SDS011;55230;42.602;23.470;2022-09-27T02:57:25;9.23;;;8.23;;
11052;SDS011;55230;42.602;23.470;2022-09-27T03:00:04;9.20;;;8.20;;
11052;SDS011;55230;42.602;23.470;2022-09-27T03:02:38;10.87;;;8.43;;
11052;SDS011;55230;42.602;23.470;2022-09-27T03:05:16;9.70;;;8.13;;
11052;SDS011;55230;42.602;23.470;2022-09-27T03:07:46;9.10;;;8.20;;
11052;SDS011;55230;42.602;23.470;2022-09-27T03:10:15;10.67;;;8.90;;
11052;SDS011;55230;42.602;23.470;2022-09-27T03:12:43;10.50;;;9.50;;
11052;SDS011;55230;42.602;23.470;2022-09-27T03:15:10;10.07;;;8.90;;
11052;SDS011;55230;42.602;23.470;2022-09-27T03:17:39;14.97;;;8.30;;
11052;SDS011;55230;42.602;23.470;2022-09-27T03:20:06;9.33;;;8.43;;
11052;SDS011;55230;42.602;23.470;2022-09-27T03:22:33;10.67;;;9.37;;
11052;SDS011;55230;42.602;23.470;2022-09-27T03:25:01;10.57;;;8.53;;
11052;SDS011;55230;42.602;23.470;2022-09-27T03:27:27;10.77;;;9.03;;
11052;SDS011;55230;42.602;23.470;2022-09-27T03:29:54;11.63;;;8.60;;
11052;SDS011;55230;42.602;23.470;2022-09-27T03:32:22;11.17;;;9.97;;
11052;SDS011;55230;42.602;23.470;2022-09-27T03:34:50;11.53;;;10.23;;
11052;SDS011;55230;42.602;23.470;2022-09-27T03:37:19;9.97;;;8.90;;
11052;SDS011;55230;42.602;23.470;2022-09-27T03:39:46;11.33;;;10.03;;
11052;SDS011;55230;42.602;23.470;2022-09-27T03:42:13;12.60;;;9.07;;
11052;SDS011;55230;42.602;23.470;2022-09-27T03:44:40;10.30;;;9.30;;
11052;SDS011;55230;42.602;23.470;2022-09-27T03:47:07;10.47;;;9.37;;
11052;SDS011;55230;42.602;23.470;2022-09-27T03:49:33;10.53;;;9.53;;
11052;SDS011;55230;42.602;23.470;2022-09-27T03:52:02;10.13;;;9.13;;
11052;SDS011;55230;42.602;23.470;2022-09-27T03:54:29;10.27;;;9.27;;
11052;SDS011;55230;42.602;23.470;2022-09-27T03:56:56;9.97;;;8.87;;
11052;SDS011;55230;42.602;23.470;2022-09-27T03:59:23;9.27;;;8.37;;
11052;SDS011;55230;42.602;23.470;2022-09-27T04:01:50;9.03;;;8.13;;
11052;SDS011;55230;42.602;23.470;2022-09-27T04:04:16;8.13;;;7.33;;
11052;SDS011;55230;42.602;23.470;2022-09-27T04:06:43;8.13;;;7.30;;
11052;SDS011;55230;42.602;23.470;2022-09-27T04:09:12;7.17;;;6.43;;
11052;SDS011;55230;42.602;23.470;2022-09-27T04:11:38;6.73;;;6.13;;
11052;SDS011;55230;42.602;23.470;2022-09-27T04:14:05;7.17;;;6.57;;
11052;SDS011;55230;42.602;23.470;2022-09-27T04:16:33;7.80;;;7.10;;
11052;SDS011;55230;42.602;23.470;2022-09-27T04:19:00;8.23;;;7.43;;
11052;SDS011;55230;42.602;23.470;2022-09-27T04:21:27;8.63;;;7.83;;
11052;SDS011;55230;42.602;23.470;2022-09-27T04:23:53;8.63;;;7.77;;
11052;SDS011;55230;42.602;23.470;2022-09-27T04:26:22;9.03;;;7.63;;
11052;SDS011;55230;42.602;23.470;2022-09-27T04:28:50;7.47;;;6.77;;
11052;SDS011;55230;42.602;23.470;2022-09-27T04:31:17;13.77;;;12.33;;
11052;SDS011;55230;42.602;23.470;2022-09-27T04:33:44;14.00;;;12.50;;
11052;SDS011;55230;42.602;23.470;2022-09-27T04:36:11;14.37;;;12.57;;
11052;SDS011;55230;42.602;23.470;2022-09-27T04:38:53;15.57;;;13.97;;
11052;SDS011;55230;42.602;23.470;2022-09-27T04:41:22;20.73;;;16.40;;
11052;SDS011;55230;42.602;23.470;2022-09-27T04:43:52;18.37;;;15.50;;
11052;SDS011;55230;42.602;23.470;2022-09-27T04:46:19;20.97;;;17.03;;
11052;SDS011;55230;42.602;23.470;2022-09-27T04:48:46;18.70;;;16.40;;
11052;SDS011;55230;42.602;23.470;2022-09-27T04:51:13;18.30;;;16.10;;
11052;SDS011;55230;42.602;23.470;2022-09-27T04:53:41;17.47;;;14.20;;
11052;SDS011;55230;42.602;23.470;2022-09-27T04:56:08;18.13;;;14.17;;
11052;SDS011;55230;42.602;23.470;2022-09-27T04:58:38;15.07;;;13.43;;
11052;SDS011;55230;42.602;23.470;2022-09-27T05:01:05;15.77;;;14.13;;
11052;SDS011;55230;42.602;23.470;2022-09-27T05:03:33;13.50;;;12.07;;
11052;SDS011;55230;42.602;23.470;2022-09-27T05:06:00;13.70;;;12.17;;
11052;SDS011;55230;42.602;23.470;2022-09-27T05:08:27;15.00;;;13.40;;
11052;SDS011;55230;42.602;23.470;2022-09-27T05:10:54;14.83;;;11.37;;
11052;SDS011;55230;42.602;23.470;2022-09-27T05:13:21;15.37;;;13.40;;
11052;SDS011;55230;42.602;23.470;2022-09-27T05:15:49;16.83;;;15.03;;
11052;SDS011;55230;42.602;23.470;2022-09-27T05:18:17;20.17;;;17.00;;
11052;SDS011;55230;42.602;23.470;2022-09-27T05:20:43;21.40;;;17.17;;
11052;SDS011;55230;42.602;23.470;2022-09-27T05:23:10;21.23;;;17.27;;
11052;SDS011;55230;42.602;23.470;2022-09-27T05:25:37;22.77;;;18.50;;
11052;SDS011;55230;42.602;23.470;2022-09-27T05:28:04;21.67;;;18.03;;
11052;SDS011;55230;42.602;23.470;2022-09-27T05:30:33;20.47;;;17.47;;
11052;SDS011;55230;42.602;23.470;2022-09-27T05:33:01;18.23;;;16.23;;
11052;SDS011;55230;42.602;23.470;2022-09-27T05:35:28;17.23;;;15.27;;
11052;SDS011;55230;42.602;23.470;2022-09-27T05:37:56;15.57;;;13.83;;
11052;SDS011;55230;42.602;23.470;2022-09-27T05:40:25;15.07;;;13.57;;
11052;SDS011;55230;42.602;23.470;2022-09-27T05:42:53;14.77;;;13.27;;
11052;SDS011;55230;42.602;23.470;2022-09-27T05:45:21;14.80;;;12.17;;
11052;SDS011;55230;42.602;23.470;2022-09-27T05:47:52;13.20;;;11.80;;
11052;SDS011;55230;42.602;23.470;2022-09-27T05:50:22;12.53;;;11.23;;
11052;SDS011;55230;42.602;23.470;2022-09-27T05:52:50;14.70;;;11.50;;
11052;SDS011;55230;42.602;23.470;2022-09-27T05:55:17;12.30;;;10.97;;
11052;SDS011;55230;42.602;23.470;2022-09-27T05:57:52;10.53;;;9.43;;
11052;SDS011;55230;42.602;23.470;2022-09-27T06:00:20;9.30;;;8.40;;
11052;SDS011;55230;42.602;23.470;2022-09-27T06:02:52;9.23;;;8.23;;
11052;SDS011;55230;42.602;23.470;2022-09-27T06:05:21;8.50;;;7.70;;
11052;SDS011;55230;42.602;23.470;2022-09-27T06:07:48;9.03;;;8.23;;
11052;SDS011;55230;42.602;23.470;2022-09-27T06:10:16;11.20;;;9.97;;
11052;SDS011;55230;42.602;23.470;2022-09-27T06:12:43;9.30;;;8.40;;
11052;SDS011;55230;42.602;23.470;2022-09-27T06:15:10;9.27;;;8.47;;
11052;SDS011;55230;42.602;23.470;2022-09-27T06:17:38;8.93;;;8.03;;
11052;SDS011;55230;42.602;23.470;2022-09-27T06:20:05;9.37;;;8.47;;
11052;SDS011;55230;42.602;23.470;2022-09-27T06:22:35;8.90;;;8.03;;
11052;SDS011;55230;42.602;23.470;2022-09-27T06:25:02;8.83;;;8.03;;
11052;SDS011;55230;42.602;23.470;2022-09-27T06:27:30;8.80;;;8.00;;
11052;SDS011;55230;42.602;23.470;2022-09-27T06:29:56;8.87;;;8.07;;
11052;SDS011;55230;42.602;23.470;2022-09-27T06:32:24;9.00;;;8.20;;
11052;SDS011;55230;42.602;23.470;2022-09-27T06:34:51;9.30;;;8.50;;
11052;SDS011;55230;42.602;23.470;2022-09-27T06:37:17;9.33;;;8.53;;
11052;SDS011;55230;42.602;23.470;2022-09-27T06:39:45;9.30;;;8.40;;
11052;SDS011;55230;42.602;23.470;2022-09-27T06:42:13;8.17;;;7.50;;
11052;SDS011;55230;42.602;23.470;2022-09-27T06:44:42;8.47;;;7.77;;
11052;SDS011;55230;42.602;23.470;2022-09-27T06:47:11;7.97;;;7.27;;
11052;SDS011;55230;42.602;23.470;2022-09-27T06:49:38;8.47;;;7.07;;
11052;SDS011;55230;42.602;23.470;2022-09-27T06:52:05;6.83;;;6.13;;
11052;SDS011;55230;42.602;23.470;2022-09-27T06:54:32;6.43;;;5.93;;
11052;SDS011;55230;42.602;23.470;2022-09-27T06:57:00;6.50;;;5.90;;
11052;SDS011;55230;42.602;23.470;2022-09-27T06:59:27;6.47;;;5.87;;
11052;SDS011;55230;42.602;23.470;2022-09-27T07:02:26;7.03;;;6.33;;
11052;SDS011;55230;42.602;23.470;2022-09-27T07:04:52;7.10;;;6.50;;
11052;SDS011;55230;42.602;23.470;2022-09-27T07:07:19;7.03;;;6.43;;
11052;SDS011;55230;42.602;23.470;2022-09-27T07:09:47;8.23;;;6.37;;
11052;SDS011;55230;42.602;23.470;2022-09-27T07:12:15;7.77;;;7.00;;
11052;SDS011;55230;42.602;23.470;2022-09-27T07:14:42;6.77;;;6.17;;
11052;SDS011;55230;42.602;23.470;2022-09-27T07:17:09;7.20;;;6.27;;
11052;SDS011;55230;42.602;23.470;2022-09-27T07:19:37;7.50;;;6.43;;
11052;SDS011;55230;42.602;23.470;2022-09-27T07:22:04;7.00;;;6.30;;
11052;SDS011;55230;42.602;23.470;2022-09-27T07:24:31;7.27;;;6.50;;
11052;SDS011;55230;42.602;23.470;2022-09-27T07:26:58;8.27;;;6.93;;
11052;SDS011;55230;42.602;23.470;2022-09-27T07:29:26;7.80;;;7.00;;
11052;SDS011;55230;42.602;23.470;2022-09-27T07:31:53;8.27;;;7.47;;
11052;SDS011;55230;42.602;23.470;2022-09-27T07:34:19;7.27;;;6.63;;
11052;SDS011;55230;42.602;23.470;2022-09-27T07:36:46;7.23;;;6.53;;
11052;SDS011;55230;42.602;23.470;2022-09-27T07:39:13;14.33;;;11.47;;
11052;SDS011;55230;42.602;23.470;2022-09-27T07:41:41;10.80;;;9.33;;
11052;SDS011;55230;42.602;23.470;2022-09-27T07:44:08;14.60;;;13.10;;
11052;SDS011;55230;42.602;23.470;2022-09-27T07:46:36;10.60;;;9.60;;
11052;SDS011;55230;42.602;23.470;2022-09-27T07:49:03;8.03;;;6.77;;
11052;SDS011;55230;42.602;23.470;2022-09-27T07:51:30;8.37;;;7.27;;
11052;SDS011;55230;42.602;23.470;2022-09-27T07:53:58;6.93;;;6.23;;
11052;SDS011;55230;42.602;23.470;2022-09-27T07:56:25;10.40;;;9.27;;
11052;SDS011;55230;42.602;23.470;2022-09-27T07:58:52;8.90;;;8.00;;
11052;SDS011;55230;42.602;23.470;2022-09-27T08:01:19;9.40;;;8.50;;
11052;SDS011;55230;42.602;23.470;2022-09-27T08:03:47;7.17;;;6.47;;
11052;SDS011;55230;42.602;23.470;2022-09-27T08:06:14;7.33;;;6.73;;
11052;SDS011;55230;42.602;23.470;2022-09-27T08:08:42;7.10;;;6.40;;
11052;SDS011;55230;42.602;23.470;2022-09-27T08:11:10;17.47;;;15.03;;
11052;SDS011;55230;42.602;23.470;2022-09-27T08:13:39;18.73;;;16.70;;
11052;SDS011;55230;42.602;23.470;2022-09-27T08:16:06;22.77;;;18.67;;
11052;SDS011;55230;42.602;23.470;2022-09-27T08:18:33;20.13;;;17.67;;
11052;SDS011;55230;42.602;23.470;2022-09-27T08:21:01;20.00;;;17.90;;
11052;SDS011;55230;42.602;23.470;2022-09-27T08:23:29;23.63;;;19.20;;
11052;SDS011;55230;42.602;23.470;2022-09-27T08:25:55;18.67;;;16.67;;
11052;SDS011;55230;42.602;23.470;2022-09-27T08:28:24;16.27;;;14.57;;
11052;SDS011;55230;42.602;23.470;2022-09-27T08:30:51;16.30;;;14.70;;
11052;SDS011;55230;42.602;23.470;2022-09-27T08:33:18;17.33;;;14.60;;
11052;SDS011;55230;42.602;23.470;2022-09-27T08:35:45;16.37;;;14.77;;
11052;SDS011;55230;42.602;23.470;2022-09-27T08:38:13;14.70;;;13.20;;
11052;SDS011;55230;42.602;23.470;2022-09-27T08:40:44;14.50;;;12.40;;
11052;SDS011;55230;42.602;23.470;2022-09-27T08:43:19;10.87;;;8.50;;
11052;SDS011;55230;42.602;23.470;2022-09-27T08:45:58;5.90;;;5.40;;
11052;SDS011;55230;42.602;23.470;2022-09-27T08:48:36;5.60;;;5.20;;
11052;SDS011;55230;42.602;23.470;2022-09-27T08:51:05;10.10;;;9.10;;
11052;SDS011;55230;42.602;23.470;2022-09-27T08:53:38;12.77;;;11.20;;
11052;SDS011;55230;42.602;23.470;2022-09-27T08:56:08;11.27;;;9.97;;
11052;SDS011;55230;42.602;23.470;2022-09-27T08:58:38;10.40;;;9.40;;
11052;SDS011;55230;42.602;23.470;2022-09-27T09:01:11;8.63;;;7.83;;
11052;SDS011;55230;42.602;23.470;2022-09-27T09:03:42;7.80;;;6.70;;
11052;SDS011;55230;42.602;23.470;2022-09-27T09:06:13;7.30;;;6.50;;
11052;SDS011;55230;42.602;23.470;2022-09-27T09:08:49;7.00;;;6.30;;
11052;SDS011;55230;42.602;23.470;2022-09-27T09:11:26;7.73;;;5.80;;
11052;SDS011;55230;42.602;23.470;2022-09-27T09:14:26;5.50;;;5.00;;
11052;SDS011;55230;42.602;23.470;2022-09-27T09:17:03;4.80;;;4.40;;
11052;SDS011;55230;42.602;23.470;2022-09-27T09:19:45;5.00;;;4.60;;
11052;SDS011;55230;42.602;23.470;2022-09-27T09:22:24;4.30;;;4.00;;
11052;SDS011;55230;42.602;23.470;2022-09-27T09:25:06;3.90;;;3.60;;
11052;SDS011;55230;42.602;23.470;2022-09-27T09:27:48;4.17;;;3.87;;
11052;SDS011;55230;42.602;23.470;2022-09-27T09:30:28;4.00;;;3.00;;
11052;SDS011;55230;42.602;23.470;2022-09-27T09:33:12;4.13;;;3.70;;
11052;SDS011;55230;42.602;23.470;2022-09-27T09:35:47;3.67;;;3.37;;
11052;SDS011;55230;42.602;23.470;2022-09-27T09:38:20;3.53;;;3.33;;
11052;SDS011;55230;42.602;23.470;2022-09-27T09:40:54;3.33;;;3.03;;
11052;SDS011;55230;42.602;23.470;2022-09-27T09:43:27;3.20;;;3.00;;
11052;SDS011;55230;42.602;23.470;2022-09-27T09:45:59;3.55;;;3.25;;
11052;SDS011;55230;42.602;23.470;2022-09-27T09:48:35;3.55;;;2.40;;
11052;SDS011;55230;42.602;23.470;2022-09-27T09:51:07;5.65;;;5.15;;
11052;SDS011;55230;42.602;23.470;2022-09-27T09:53:40;3.80;;;3.60;;
11052;SDS011;55230;42.602;23.470;2022-09-27T09:56:14;3.40;;;3.00;;
11052;SDS011;55230;42.602;23.470;2022-09-27T09:58:46;3.50;;;3.20;;
11052;SDS011;55230;42.602;23.470;2022-09-27T10:01:18;3.03;;;2.73;;
11052;SDS011;55230;42.602;23.470;2022-09-27T10:03:46;2.80;;;2.60;;
11052;SDS011;55230;42.602;23.470;2022-09-27T10:06:13;4.10;;;3.80;;
11052;SDS011;55230;42.602;23.470;2022-09-27T10:08:42;4.93;;;4.50;;
11052;SDS011;55230;42.602;23.470;2022-09-27T10:11:11;3.70;;;3.40;;
11052;SDS011;55230;42.602;23.470;2022-09-27T10:13:45;3.77;;;3.33;;
11052;SDS011;55230;42.602;23.470;2022-09-27T10:16:13;4.17;;;3.87;;
11052;SDS011;55230;42.602;23.470;2022-09-27T10:18:42;4.70;;;3.60;;
11052;SDS011;55230;42.602;23.470;2022-09-27T10:21:12;5.43;;;5.03;;
11052;SDS011;55230;42.602;23.470;2022-09-27T10:24:02;6.10;;;5.50;;
11052;SDS011;55230;42.602;23.470;2022-09-27T10:26:32;7.60;;;6.30;;
11052;SDS011;55230;42.602;23.470;2022-09-27T10:29:13;6.37;;;5.77;;
11052;SDS011;55230;42.602;23.470;2022-09-27T10:31:42;6.50;;;5.90;;
11052;SDS011;55230;42.602;23.470;2022-09-27T10:34:16;4.17;;;3.83;;
11052;SDS011;55230;42.602;23.470;2022-09-27T10:36:45;3.80;;;3.50;;
11052;SDS011;55230;42.602;23.470;2022-09-27T10:39:27;2.90;;;2.70;;
11052;SDS011;55230;42.602;23.470;2022-09-27T10:41:56;2.67;;;2.47;;
11052;SDS011;55230;42.602;23.470;2022-09-27T10:44:23;2.93;;;2.73;;
11052;SDS011;55230;42.602;23.470;2022-09-27T10:46:52;3.43;;;3.03;;
11052;SDS011;55230;42.602;23.470;2022-09-27T10:49:21;3.00;;;2.80;;
11052;SDS011;55230;42.602;23.470;2022-09-27T10:51:52;3.87;;;2.77;;
11052;SDS011;55230;42.602;23.470;2022-09-27T10:54:22;7.10;;;4.60;;
11052;SDS011;55230;42.602;23.470;2022-09-27T10:56:59;6.03;;;4.50;;
11052;SDS011;55230;42.602;23.470;2022-09-27T10:59:30;6.00;;;4.80;;
11052;SDS011;55230;42.602;23.470;2022-09-27T11:01:59;6.90;;;6.30;;
11052;SDS011;55230;42.602;23.470;2022-09-27T11:04:28;9.10;;;8.20;;
11052;SDS011;55230;42.602;23.470;2022-09-27T11:07:05;9.53;;;8.63;;
11052;SDS011;55230;42.602;23.470;2022-09-27T11:09:43;8.77;;;7.87;;
11052;SDS011;55230;42.602;23.470;2022-09-27T11:12:14;7.97;;;7.10;;
11052;SDS011;55230;42.602;23.470;2022-09-27T11:14:45;7.50;;;6.80;;
11052;SDS011;55230;42.602;23.470;2022-09-27T11:17:21;5.33;;;4.83;;
11052;SDS011;55230;42.602;23.470;2022-09-27T11:19:57;3.57;;;2.80;;
11052;SDS011;55230;42.602;23.470;2022-09-27T11:25:38;4.13;;;2.63;;
11052;SDS011;55230;42.602;23.470;2022-09-27T11:28:16;2.78;;;2.58;;
11052;SDS011;55230;42.602;23.470;2022-09-27T11:30:55;2.60;;;2.40;;
11052;SDS011;55230;42.602;23.470;2022-09-27T11:36:27;2.53;;;2.30;;
11052;SDS011;55230;42.602;23.470;2022-09-27T11:39:08;2.83;;;2.38;;
11052;SDS011;55230;42.602;23.470;2022-09-27T11:41:47;2.50;;;2.25;;
11052;SDS011;55230;42.602;23.470;2022-09-27T11:44:43;2.60;;;2.40;;
11052;SDS011;55230;42.602;23.470;2022-09-27T11:47:20;3.47;;;2.77;;
11052;SDS011;55230;42.602;23.470;2022-09-27T11:50:02;3.17;;;2.97;;
11052;SDS011;55230;42.602;23.470;2022-09-27T11:52:45;3.70;;;3.40;;
11052;SDS011;55230;42.602;23.470;2022-09-27T11:55:26;5.83;;;5.33;;
11052;SDS011;55230;42.602;23.470;2022-09-27T11:58:05;6.13;;;5.63;;
11052;SDS011;55230;42.602;23.470;2022-09-27T12:00:47;8.80;;;7.70;;
11052;SDS011;55230;42.602;23.470;2022-09-27T12:06:19;6.87;;;6.17;;
11052;SDS011;55230;42.602;23.470;2022-09-27T12:08:59;8.80;;;6.57;;
11052;SDS011;55230;42.602;23.470;2022-09-27T12:11:33;7.60;;;6.90;;
11052;SDS011;55230;42.602;23.470;2022-09-27T12:14:05;7.10;;;6.20;;
11052;SDS011;55230;42.602;23.470;2022-09-27T12:16:38;7.07;;;5.93;;
11052;SDS011;55230;42.602;23.470;2022-09-27T12:19:09;8.10;;;6.33;;
11052;SDS011;55230;42.602;23.470;2022-09-27T12:21:43;7.70;;;6.40;;
11052;SDS011;55230;42.602;23.470;2022-09-27T12:24:13;6.30;;;5.73;;
11052;SDS011;55230;42.602;23.470;2022-09-27T12:26:44;6.00;;;5.50;;
11052;SDS011;55230;42.602;23.470;2022-09-27T12:29:14;6.43;;;5.80;;
11052;SDS011;55230;42.602;23.470;2022-09-27T12:31:49;6.37;;;5.53;;
11052;SDS011;55230;42.602;23.470;2022-09-27T12:34:24;4.43;;;4.03;;
11052;SDS011;55230;42.602;23.470;2022-09-27T12:36:58;5.00;;;3.57;;
11052;SDS011;55230;42.602;23.470;2022-09-27T12:39:28;4.37;;;3.50;;
11052;SDS011;55230;42.602;23.470;2022-09-27T12:42:11;3.20;;;3.00;;
11052;SDS011;55230;42.602;23.470;2022-09-27T12:44:42;3.57;;;3.23;;
11052;SDS011;55230;42.602;23.470;2022-09-27T12:47:12;3.27;;;2.80;;
11052;SDS011;55230;42.602;23.470;2022-09-27T12:49:50;5.70;;;3.30;;
11052;SDS011;55230;42.602;23.470;2022-09-27T12:52:25;2.90;;;2.70;;
11052;SDS011;55230;42.602;23.470;2022-09-27T12:55:11;3.77;;;2.73;;
11052;SDS011;55230;42.602;23.470;2022-09-27T12:58:08;3.13;;;2.93;;
11052;SDS011;55230;42.602;23.470;2022-09-27T13:00:50;3.63;;;3.30;;
11052;SDS011;55230;42.602;23.470;2022-09-27T13:03:31;3.67;;;3.10;;
11052;SDS011;55230;42.602;23.470;2022-09-27T13:09:10;2.50;;;2.30;;
11052;SDS011;55230;42.602;23.470;2022-09-27T13:11:59;2.60;;;2.40;;
11052;SDS011;55230;42.602;23.470;2022-09-27T13:14:34;2.50;;;2.30;;
11052;SDS011;55230;42.602;23.470;2022-09-27T13:20:35;2.00;;;1.73;;
11052;SDS011;55230;42.602;23.470;2022-09-27T13:26:19;2.20;;;2.00;;
11052;SDS011;55230;42.602;23.470;2022-09-27T13:28:57;3.17;;;2.30;;
11052;SDS011;55230;42.602;23.470;2022-09-27T13:34:40;1.60;;;1.50;;
11052;SDS011;55230;42.602;23.470;2022-09-27T13:43:02;1.65;;;1.55;;
11052;SDS011;55230;42.602;23.470;2022-09-27T13:45:48;1.50;;;1.40;;
11052;SDS011;55230;42.602;23.470;2022-09-27T13:48:21;1.67;;;1.58;;
11052;SDS011;55230;42.602;23.470;2022-09-27T13:50:53;1.60;;;1.45;;
11052;SDS011;55230;42.602;23.470;2022-09-27T13:53:26;1.50;;;1.40;;
11052;SDS011;55230;42.602;23.470;2022-09-27T13:55:56;1.48;;;1.38;;
11052;SDS011;55230;42.602;23.470;2022-09-27T13:58:29;1.40;;;1.30;;
11052;SDS011;55230;42.602;23.470;2022-09-27T14:01:02;1.90;;;1.75;;
11052;SDS011;55230;42.602;23.470;2022-09-27T14:03:36;1.50;;;1.40;;
11052;SDS011;55230;42.602;23.470;2022-09-27T14:06:18;1.42;;;1.25;;
11052;SDS011;55230;42.602;23.470;2022-09-27T14:08:49;1.48;;;1.10;;
11052;SDS011;55230;42.602;23.470;2022-09-27T14:11:20;1.38;;;1.30;;
11052;SDS011;55230;42.602;23.470;2022-09-27T14:13:51;1.65;;;1.25;;
11052;SDS011;55230;42.602;23.470;2022-09-27T14:16:18;1.58;;;1.10;;
11052;SDS011;55230;42.602;23.470;2022-09-27T14:18:46;1.88;;;1.30;;
11052;SDS011;55230;42.602;23.470;2022-09-27T14:21:21;1.30;;;1.20;;
11052;SDS011;55230;42.602;23.470;2022-09-27T14:27:02;1.35;;;1.25;;
11052;SDS011;55230;42.602;23.470;2022-09-27T14:29:32;1.60;;;1.17;;
11052;SDS011;55230;42.602;23.470;2022-09-27T14:32:05;1.02;;;1.02;;
11052;SDS011;55230;42.602;23.470;2022-09-27T14:34:35;1.63;;;1.52;;
11052;SDS011;55230;42.602;23.470;2022-09-27T14:37:03;2.60;;;2.40;;
11052;SDS011;55230;42.602;23.470;2022-09-27T14:39:53;3.08;;;2.78;;
11052;SDS011;55230;42.602;23.470;2022-09-27T14:42:22;2.80;;;2.60;;
11052;SDS011;55230;42.602;23.470;2022-09-27T14:44:50;1.50;;;1.40;;
11052;SDS011;55230;42.602;23.470;2022-09-27T14:47:20;3.03;;;1.83;;
11052;SDS011;55230;42.602;23.470;2022-09-27T14:49:48;1.90;;;1.80;;
11052;SDS011;55230;42.602;23.470;2022-09-27T14:52:17;1.60;;;1.50;;
11052;SDS011;55230;42.602;23.470;2022-09-27T14:54:55;2.47;;;1.77;;
11052;SDS011;55230;42.602;23.470;2022-09-27T14:57:24;1.52;;;1.30;;
11052;SDS011;55230;42.602;23.470;2022-09-27T14:59:52;1.65;;;1.55;;
11052;SDS011;55230;42.602;23.470;2022-09-27T15:02:21;4.60;;;2.30;;
11052;SDS011;55230;42.602;23.470;2022-09-27T15:04:50;3.83;;;3.43;;
11052;SDS011;55230;42.602;23.470;2022-09-27T15:07:18;7.53;;;4.03;;
11052;SDS011;55230;42.602;23.470;2022-09-27T15:09:46;3.93;;;3.63;;
11052;SDS011;55230;42.602;23.470;2022-09-27T15:12:17;4.33;;;3.40;;
11052;SDS011;55230;42.602;23.470;2022-09-27T15:14:49;4.53;;;3.33;;
11052;SDS011;55230;42.602;23.470;2022-09-27T15:17:17;6.07;;;3.30;;
11052;SDS011;55230;42.602;23.470;2022-09-27T15:19:56;4.90;;;3.70;;
11052;SDS011;55230;42.602;23.470;2022-09-27T15:22:34;6.53;;;3.73;;
11052;SDS011;55230;42.602;23.470;2022-09-27T15:25:17;3.63;;;3.30;;
11052;SDS011;55230;42.602;23.470;2022-09-27T15:27:51;3.87;;;3.53;;